createdAt,value
2019-03-26T00:04:00.000Z,6.2
2019-03-26T00:09:00.000Z,6.2
2019-03-26T00:14:00.000Z,6.2
2019-03-26T00:19:00.000Z,6.2
2019-03-26T00:24:00.000Z,6.2
2019-03-26T00:29:00.000Z,6.2
2019-03-26T00:34:00.000Z,6.2
2019-03-26T00:39:00.000Z,6.2
2019-03-26T00:44:00.000Z,6.2
2019-03-26T00:49:00.000Z,6.2
2019-03-26T00:54:00.000Z,6.2
2019-03-26T00:59:00.000Z,6.2
2019-03-26T01:04:00.000Z,6.1
2019-03-26T01:09:00.000Z,6.1
2019-03-26T01:14:00.000Z,6.1
2019-03-26T01:19:00.000Z,6.1
2019-03-26T01:24:00.000Z,6.1
2019-03-26T01:29:00.000Z,6.0
2019-03-26T01:34:00.000Z,6.0
2019-03-26T01:39:00.000Z,6.0
2019-03-26T01:44:00.000Z,6.0
2019-03-26T01:49:00.000Z,6.0
2019-03-26T01:54:00.000Z,6.0
2019-03-26T01:59:00.000Z,6.0
2019-03-26T02:04:00.000Z,5.9
2019-03-26T02:10:00.000Z,5.9
2019-03-26T02:15:00.000Z,5.9
2019-03-26T02:20:00.000Z,5.9
2019-03-26T02:25:00.000Z,5.9
2019-03-26T02:30:00.000Z,5.9
2019-03-26T02:35:00.000Z,6.0
2019-03-26T02:40:00.000Z,6.0
2019-03-26T02:45:00.000Z,6.1
2019-03-26T02:50:00.000Z,6.1
2019-03-26T03:01:00.000Z,6.1
2019-03-26T03:06:00.000Z,6.1
2019-03-26T03:11:00.000Z,6.1
2019-03-26T03:16:00.000Z,6.0
2019-03-26T03:21:00.000Z,6.0
2019-03-26T03:26:00.000Z,5.9
2019-03-26T03:31:00.000Z,5.8
2019-03-26T03:36:00.000Z,5.7
2019-03-26T03:41:00.000Z,5.7
2019-03-26T03:46:00.000Z,5.7
2019-03-26T03:51:00.000Z,5.6
2019-03-26T03:56:00.000Z,5.6
2019-03-26T04:01:00.000Z,5.6
2019-03-26T04:06:00.000Z,5.6
2019-03-26T04:11:00.000Z,5.6
2019-03-26T04:16:00.000Z,5.5
2019-03-26T04:21:00.000Z,5.5
2019-03-26T04:26:00.000Z,5.5
2019-03-26T04:31:00.000Z,5.5
2019-03-26T04:36:00.000Z,5.4
2019-03-26T04:41:00.000Z,5.4
2019-03-26T04:46:00.000Z,5.4
2019-03-26T04:51:00.000Z,5.3
2019-03-26T04:56:00.000Z,5.3
2019-03-26T05:01:00.000Z,5.3
2019-03-26T05:06:00.000Z,5.2
2019-03-26T05:11:00.000Z,5.3
2019-03-26T05:16:00.000Z,5.3
2019-03-26T05:21:00.000Z,5.3
2019-03-26T05:26:00.000Z,5.3
2019-03-26T05:31:00.000Z,5.4
2019-03-26T05:36:00.000Z,5.4
2019-03-26T05:41:00.000Z,5.5
2019-03-26T05:46:00.000Z,5.5
2019-03-26T05:51:00.000Z,5.6
2019-03-26T05:56:00.000Z,5.7
2019-03-26T06:01:00.000Z,5.8
2019-03-26T06:06:00.000Z,5.9
2019-03-26T06:12:00.000Z,5.9
2019-03-26T06:17:00.000Z,5.8
2019-03-26T06:22:00.000Z,5.9
2019-03-26T06:27:00.000Z,6.0
2019-03-26T06:32:00.000Z,6.0
2019-03-26T06:37:00.000Z,6.1
2019-03-26T06:42:00.000Z,6.1
2019-03-26T06:47:00.000Z,6.2
2019-03-26T06:52:00.000Z,6.2
2019-03-26T06:57:00.000Z,6.3
2019-03-26T07:02:00.000Z,6.2
2019-03-26T07:07:00.000Z,6.3
2019-03-26T07:12:00.000Z,6.3
2019-03-26T07:17:00.000Z,6.4
2019-03-26T07:22:00.000Z,6.5
2019-03-26T07:27:00.000Z,6.6
2019-03-26T07:32:00.000Z,6.6
2019-03-26T07:37:00.000Z,6.8
2019-03-26T07:42:00.000Z,6.9
2019-03-26T07:47:00.000Z,7.1
2019-03-26T07:52:00.000Z,7.4
2019-03-26T07:57:00.000Z,7.4
2019-03-26T08:02:00.000Z,7.5
2019-03-26T08:07:00.000Z,7.6
2019-03-26T08:12:00.000Z,7.7
2019-03-26T08:17:00.000Z,7.8
2019-03-26T08:23:00.000Z,8.0
2019-03-26T08:28:00.000Z,8.6
2019-03-26T08:33:00.000Z,9.6
2019-03-26T08:38:00.000Z,9.3
2019-03-26T08:43:00.000Z,8.9
2019-03-26T08:48:00.000Z,8.7
2019-03-26T08:53:00.000Z,9.6
2019-03-26T08:58:00.000Z,10.2
2019-03-26T09:03:00.000Z,11.0
2019-03-26T09:08:00.000Z,10.7
2019-03-26T09:13:00.000Z,10.5
2019-03-26T09:18:00.000Z,10.0
2019-03-26T09:23:00.000Z,10.2
2019-03-26T09:28:00.000Z,11.0
2019-03-26T09:33:00.000Z,10.7
2019-03-26T09:38:00.000Z,10.3
2019-03-26T09:43:00.000Z,9.8
2019-03-26T09:48:00.000Z,9.8
2019-03-26T09:53:00.000Z,10.4
2019-03-26T09:58:00.000Z,11.3
2019-03-26T10:03:00.000Z,11.8
2019-03-26T10:08:00.000Z,11.9
2019-03-26T10:13:00.000Z,11.7
2019-03-26T10:18:00.000Z,11.6
2019-03-26T10:23:00.000Z,11.7
2019-03-26T10:28:00.000Z,11.0
2019-03-26T10:33:00.000Z,10.8
2019-03-26T10:38:00.000Z,10.8
2019-03-26T10:44:00.000Z,11.6
2019-03-26T10:49:00.000Z,12.4
2019-03-26T10:54:00.000Z,12.2
2019-03-26T10:59:00.000Z,12.0
2019-03-26T11:04:00.000Z,11.3
2019-03-26T11:09:00.000Z,10.7
2019-03-26T11:14:00.000Z,10.4
2019-03-26T11:19:00.000Z,10.7
2019-03-26T11:24:00.000Z,11.2
2019-03-26T11:29:00.000Z,11.1
2019-03-26T11:34:00.000Z,10.9
2019-03-26T11:39:00.000Z,11.0
2019-03-26T11:44:00.000Z,11.0
2019-03-26T11:49:00.000Z,10.9
2019-03-26T11:54:00.000Z,10.9
2019-03-26T11:59:00.000Z,10.8
2019-03-26T12:04:00.000Z,10.8
2019-03-26T12:09:00.000Z,10.7
2019-03-26T12:14:00.000Z,10.9
2019-03-26T12:19:00.000Z,11.0
2019-03-26T12:24:00.000Z,10.9
2019-03-26T12:29:00.000Z,10.7
2019-03-26T12:34:00.000Z,10.6
2019-03-26T12:39:00.000Z,10.6
2019-03-26T12:45:00.000Z,10.7
2019-03-26T12:50:00.000Z,10.9
2019-03-26T12:55:00.000Z,10.9
2019-03-26T13:00:00.000Z,10.8
2019-03-26T13:05:00.000Z,11.0
2019-03-26T13:10:00.000Z,11.0
2019-03-26T13:15:00.000Z,10.8
2019-03-26T13:20:00.000Z,10.7
2019-03-26T13:25:00.000Z,10.6
2019-03-26T13:30:00.000Z,10.6
2019-03-26T13:35:00.000Z,11.0
2019-03-26T13:40:00.000Z,11.5
2019-03-26T13:45:00.000Z,11.6
2019-03-26T13:50:00.000Z,11.4
2019-03-26T13:55:00.000Z,11.2
2019-03-26T14:00:00.000Z,11.0
2019-03-26T14:05:00.000Z,11.0
2019-03-26T14:10:00.000Z,11.0
2019-03-26T14:15:00.000Z,10.9
2019-03-26T14:20:00.000Z,10.8
2019-03-26T14:25:00.000Z,10.9
2019-03-26T14:30:00.000Z,11.1
2019-03-26T14:35:00.000Z,10.9
2019-03-26T14:40:00.000Z,11.0
2019-03-26T14:45:00.000Z,10.9
2019-03-26T14:50:00.000Z,10.7
2019-03-26T14:55:00.000Z,10.6
2019-03-26T15:00:00.000Z,10.7
2019-03-26T15:06:00.000Z,10.7
2019-03-26T15:11:00.000Z,10.5
2019-03-26T15:16:00.000Z,10.4
2019-03-26T15:21:00.000Z,10.5
2019-03-26T15:26:00.000Z,10.5
2019-03-26T15:31:00.000Z,10.5
2019-03-26T15:36:00.000Z,10.6
2019-03-26T15:41:00.000Z,10.6
2019-03-26T15:46:00.000Z,10.4
2019-03-26T15:51:00.000Z,10.3
2019-03-26T15:56:00.000Z,10.3
2019-03-26T16:01:00.000Z,10.2
2019-03-26T16:06:00.000Z,10.2
2019-03-26T16:11:00.000Z,10.0
2019-03-26T16:16:00.000Z,9.9
2019-03-26T16:21:00.000Z,9.8
2019-03-26T16:26:00.000Z,9.7
2019-03-26T16:31:00.000Z,9.6
2019-03-26T16:36:00.000Z,9.6
2019-03-26T16:41:00.000Z,9.5
2019-03-26T16:46:00.000Z,9.4
2019-03-26T16:51:00.000Z,9.4
2019-03-26T16:56:00.000Z,9.3
2019-03-26T17:01:00.000Z,9.3
2019-03-26T17:06:00.000Z,9.2
2019-03-26T17:11:00.000Z,9.1
2019-03-26T17:17:00.000Z,9.0
2019-03-26T17:22:00.000Z,9.0
2019-03-26T17:27:00.000Z,8.9
2019-03-26T17:32:00.000Z,8.8
2019-03-26T17:37:00.000Z,8.8
2019-03-26T17:42:00.000Z,8.7
2019-03-26T17:47:00.000Z,8.7
2019-03-26T17:52:00.000Z,8.7
2019-03-26T17:57:00.000Z,8.7
2019-03-26T18:02:00.000Z,8.7
2019-03-26T18:07:00.000Z,8.7
2019-03-26T18:12:00.000Z,8.7
2019-03-26T18:17:00.000Z,8.7
2019-03-26T18:22:00.000Z,8.6
2019-03-26T18:27:00.000Z,8.6
2019-03-26T18:32:00.000Z,8.6
2019-03-26T18:37:00.000Z,8.6
2019-03-26T18:42:00.000Z,8.6
2019-03-26T18:47:00.000Z,8.6
2019-03-26T18:52:00.000Z,8.6
2019-03-26T18:57:00.000Z,8.6
2019-03-26T19:02:00.000Z,8.6
2019-03-26T19:07:00.000Z,8.6
2019-03-26T19:12:00.000Z,8.5
2019-03-26T19:17:00.000Z,8.5
2019-03-26T19:22:00.000Z,8.4
2019-03-26T19:27:00.000Z,8.4
2019-03-26T19:32:00.000Z,8.4
2019-03-26T19:38:00.000Z,8.3
2019-03-26T19:43:00.000Z,8.3
2019-03-26T19:48:00.000Z,8.3
2019-03-26T19:53:00.000Z,8.2
2019-03-26T19:58:00.000Z,8.2
2019-03-26T20:03:00.000Z,8.2
2019-03-26T20:08:00.000Z,8.2
2019-03-26T20:13:00.000Z,8.2
2019-03-26T20:18:00.000Z,8.1
2019-03-26T20:23:00.000Z,8.1
2019-03-26T20:28:00.000Z,8.1
2019-03-26T20:33:00.000Z,8.1
2019-03-26T20:38:00.000Z,8.1
2019-03-26T20:43:00.000Z,8.1
2019-03-26T20:48:00.000Z,8.1
2019-03-26T20:53:00.000Z,8.1
2019-03-26T20:58:00.000Z,8.1
2019-03-26T21:03:00.000Z,8.0
2019-03-26T21:08:00.000Z,8.0
2019-03-26T21:13:00.000Z,8.0
2019-03-26T21:18:00.000Z,8.0
2019-03-26T21:23:00.000Z,8.0
2019-03-26T21:28:00.000Z,8.0
2019-03-26T21:33:00.000Z,8.0
2019-03-26T21:38:00.000Z,8.0
2019-03-26T21:43:00.000Z,8.0
2019-03-26T21:49:00.000Z,7.9
2019-03-26T21:54:00.000Z,7.9
2019-03-26T21:59:00.000Z,7.9
2019-03-26T22:04:00.000Z,7.9
2019-03-26T22:09:00.000Z,7.8
2019-03-26T22:14:00.000Z,7.8
2019-03-26T22:19:00.000Z,7.8
2019-03-26T22:24:00.000Z,7.8
2019-03-26T22:29:00.000Z,7.8
2019-03-26T22:34:00.000Z,7.8
2019-03-26T22:39:00.000Z,7.8
2019-03-26T22:44:00.000Z,7.9
2019-03-26T22:49:00.000Z,7.9
2019-03-26T22:54:00.000Z,7.9
2019-03-26T22:59:00.000Z,7.9
2019-03-26T23:04:00.000Z,7.9
2019-03-26T23:09:00.000Z,7.9
2019-03-26T23:14:00.000Z,7.8
2019-03-26T23:19:00.000Z,7.8
2019-03-26T23:24:00.000Z,7.8
2019-03-26T23:29:00.000Z,7.8
2019-03-26T23:34:00.000Z,7.8
2019-03-26T23:39:00.000Z,7.8
2019-03-26T23:44:00.000Z,7.8
2019-03-26T23:49:00.000Z,7.8
2019-03-26T23:54:00.000Z,7.8
